Terminal Aerodrome Forecast
Issued by NWS

Home | Current Version | Previous Version | Text Only | Print | Product List | Glossary On
Versions: 1 2 3 4 5 6 7 8 9 10 11 12 13 14 15 16 17 18 19 20 21 22 23
000
FTUS41 KILN 051440 AAB
TAFLCK
TAF AMD
KLCK 051440Z 0515/0612 32006KT P6SM OVC015
      TEMPO 0515/0517 4SM -RA OVC008
     FM051700 36010KT P6SM BKN015
     FM051900 36015G21KT P6SM BKN040
     FM060100 35008KT P6SM SCT045=

USA.gov is the U.S. government's official web portal to all federal, state and local government web resources and services.